Time;durP1;ratioP1;P1;durP2;ratioP2;P2;SDS_P1;SDS_P2;PMS_P1;PMS_P2;Temp;Humidity;BMP_temperature;BMP_pressure;BME280_temperature;BME280_humidity;BME280_pressure;Samples;Min_cycle;Max_cycle;Signal;HPM_P1;HPM_P2
2020/07/04 00:01:55;;;;;;;5.6;2.2;;;;;;;;;;;;;
2020/07/04 00:04:23;;;;;;;6.1;2.3;;;;;;;;;;;;;
2020/07/04 00:06:48;;;;;;;4.7;2.4;;;;;;;;;;;;;
2020/07/04 00:09:13;;;;;;;3.6;2.1;;;;;;;;;;;;;
2020/07/04 00:11:46;;;;;;;6.2;2.2;;;;;;;;;;;;;
2020/07/04 00:14:02;;;;;;;3;2.1;;;;;;;;;;;;;
2020/07/04 00:16:28;;;;;;;6.2;2.3;;;;;;;;;;;;;
2020/07/04 00:18:54;;;;;;;4;2.2;;;;;;;;;;;;;
2020/07/04 00:21:19;;;;;;;3.6;2.2;;;;;;;;;;;;;
2020/07/04 00:23:45;;;;;;;7.1;2.5;;;;;;;;;;;;;
2020/07/04 00:26:10;;;;;;;4.1;2.4;;;;;;;;;;;;;
2020/07/04 00:28:35;;;;;;;6.3;2.4;;;;;;;;;;;;;
2020/07/04 00:31:00;;;;;;;5.7;2.5;;;;;;;;;;;;;
2020/07/04 00:33:25;;;;;;;4.6;2.4;;;;;;;;;;;;;
2020/07/04 00:35:50;;;;;;;8.2;2.8;;;;;;;;;;;;;
2020/07/04 00:38:16;;;;;;;3.5;2.3;;;;;;;;;;;;;
2020/07/04 00:40:41;;;;;;;7.1;2.7;;;;;;;;;;;;;
2020/07/04 00:43:06;;;;;;;3.7;2.3;;;;;;;;;;;;;
2020/07/04 00:45:32;;;;;;;3.6;2.2;;;;;;;;;;;;;
2020/07/04 00:47:56;;;;;;;4;2.2;;;;;;;;;;;;;
2020/07/04 00:50:21;;;;;;;5.9;2.4;;;;;;;;;;;;;
2020/07/04 00:52:47;;;;;;;6;2.5;;;;;;;;;;;;;
2020/07/04 00:55:12;;;;;;;4;2.5;;;;;;;;;;;;;
2020/07/04 00:57:38;;;;;;;7.5;2.7;;;;;;;;;;;;;
2020/07/04 01:00:03;;;;;;;3.5;2.3;;;;;;;;;;;;;
2020/07/04 01:02:28;;;;;;;3.2;2.4;;;;;;;;;;;;;
2020/07/04 01:04:53;;;;;;;6.5;2.4;;;;;;;;;;;;;
2020/07/04 01:07:18;;;;;;;5.1;2.3;;;;;;;;;;;;;
2020/07/04 01:09:44;;;;;;;4.1;2.6;;;;;;;;;;;;;
2020/07/04 01:12:09;;;;;;;5.7;2.5;;;;;;;;;;;;;
2020/07/04 01:14:35;;;;;;;3.6;2.3;;;;;;;;;;;;;
2020/07/04 01:17:00;;;;;;;4.1;2.5;;;;;;;;;;;;;
2020/07/04 01:19:26;;;;;;;4.5;2.9;;;;;;;;;;;;;
2020/07/04 01:21:51;;;;;;;3.3;2.5;;;;;;;;;;;;;
2020/07/04 01:24:17;;;;;;;4.9;2.4;;;;;;;;;;;;;
2020/07/04 01:26:42;;;;;;;3.2;2.4;;;;;;;;;;;;;
2020/07/04 01:29:08;;;;;;;6.1;2.5;;;;;;;;;;;;;
2020/07/04 01:31:33;;;;;;;5.4;2.5;;;;;;;;;;;;;
2020/07/04 01:33:58;;;;;;;5.7;2.4;;;;;;;;;;;;;
2020/07/04 01:36:23;;;;;;;4.5;2.2;;;;;;;;;;;;;
2020/07/04 01:38:49;;;;;;;6.1;2.3;;;;;;;;;;;;;
2020/07/04 01:41:14;;;;;;;5.6;2.2;;;;;;;;;;;;;
2020/07/04 01:43:39;;;;;;;4.3;2.5;;;;;;;;;;;;;
2020/07/04 01:46:05;;;;;;;5.2;2.4;;;;;;;;;;;;;
2020/07/04 01:48:30;;;;;;;6.4;2.3;;;;;;;;;;;;;
2020/07/04 01:50:57;;;;;;;6;2.2;;;;;;;;;;;;;
2020/07/04 01:53:22;;;;;;;6.8;2.3;;;;;;;;;;;;;
2020/07/04 01:55:47;;;;;;;4.2;2.3;;;;;;;;;;;;;
2020/07/04 01:58:12;;;;;;;5.4;2.4;;;;;;;;;;;;;
2020/07/04 02:00:41;;;;;;;4.9;2.2;;;;;;;;;;;;;
2020/07/04 02:03:06;;;;;;;7;2.3;;;;;;;;;;;;;
2020/07/04 02:05:31;;;;;;;4.3;2.2;;;;;;;;;;;;;
2020/07/04 02:07:56;;;;;;;2.9;2.2;;;;;;;;;;;;;
2020/07/04 02:10:22;;;;;;;5.8;2.6;;;;;;;;;;;;;
2020/07/04 02:12:47;;;;;;;5.3;2.4;;;;;;;;;;;;;
2020/07/04 02:15:13;;;;;;;4;2.3;;;;;;;;;;;;;
2020/07/04 02:17:38;;;;;;;7.2;2.3;;;;;;;;;;;;;
2020/07/04 02:20:06;;;;;;;4.2;2.6;;;;;;;;;;;;;
2020/07/04 02:22:31;;;;;;;7.5;2.4;;;;;;;;;;;;;
2020/07/04 02:24:56;;;;;;;3.9;2.2;;;;;;;;;;;;;
2020/07/04 02:27:21;;;;;;;5.3;2.2;;;;;;;;;;;;;
2020/07/04 02:29:47;;;;;;;3;2.5;;;;;;;;;;;;;
2020/07/04 02:32:12;;;;;;;3.8;2;;;;;;;;;;;;;
2020/07/04 02:34:38;;;;;;;6.6;2.3;;;;;;;;;;;;;
2020/07/04 02:37:03;;;;;;;6.3;2.4;;;;;;;;;;;;;
2020/07/04 02:39:29;;;;;;;4.6;2.4;;;;;;;;;;;;;
2020/07/04 02:41:54;;;;;;;4;2.4;;;;;;;;;;;;;
2020/07/04 02:44:20;;;;;;;3.5;2.4;;;;;;;;;;;;;
2020/07/04 02:46:45;;;;;;;6;2.7;;;;;;;;;;;;;
2020/07/04 02:49:10;;;;;;;4.8;2.5;;;;;;;;;;;;;
2020/07/04 02:51:36;;;;;;;6.3;2.6;;;;;;;;;;;;;
2020/07/04 02:54:01;;;;;;;3.7;2.5;;;;;;;;;;;;;
2020/07/04 02:56:26;;;;;;;6.6;2.5;;;;;;;;;;;;;
2020/07/04 02:58:51;;;;;;;5;2.5;;;;;;;;;;;;;
2020/07/04 03:01:16;;;;;;;3.5;2.5;;;;;;;;;;;;;
2020/07/04 03:03:41;;;;;;;5.9;2.4;;;;;;;;;;;;;
2020/07/04 03:06:07;;;;;;;5;2.5;;;;;;;;;;;;;
2020/07/04 03:08:32;;;;;;;4.8;2.7;;;;;;;;;;;;;
2020/07/04 03:10:58;;;;;;;7.6;2.8;;;;;;;;;;;;;
2020/07/04 03:13:23;;;;;;;6.4;2.7;;;;;;;;;;;;;
2020/07/04 03:15:50;;;;;;;5;2.5;;;;;;;;;;;;;
2020/07/04 03:18:15;;;;;;;5.8;2.4;;;;;;;;;;;;;
2020/07/04 03:20:41;;;;;;;5.4;2.8;;;;;;;;;;;;;
2020/07/04 03:23:06;;;;;;;8.3;2.8;;;;;;;;;;;;;
2020/07/04 03:25:32;;;;;;;4.9;2.4;;;;;;;;;;;;;
2020/07/04 03:27:57;;;;;;;6.8;2.5;;;;;;;;;;;;;
2020/07/04 03:30:25;;;;;;;5.2;2.5;;;;;;;;;;;;;
2020/07/04 03:32:51;;;;;;;4.3;2.6;;;;;;;;;;;;;
2020/07/04 03:35:16;;;;;;;5.3;2.5;;;;;;;;;;;;;
2020/07/04 03:37:41;;;;;;;4.7;2.6;;;;;;;;;;;;;
2020/07/04 03:40:06;;;;;;;4.4;2.6;;;;;;;;;;;;;
2020/07/04 03:42:32;;;;;;;5.7;2.6;;;;;;;;;;;;;
2020/07/04 03:44:57;;;;;;;6;2.7;;;;;;;;;;;;;
2020/07/04 03:47:23;;;;;;;2.7;2.4;;;;;;;;;;;;;
2020/07/04 03:49:48;;;;;;;5.4;2.2;;;;;;;;;;;;;
2020/07/04 03:52:14;;;;;;;5.7;2.6;;;;;;;;;;;;;
2020/07/04 03:54:40;;;;;;;4.7;2.4;;;;;;;;;;;;;
2020/07/04 03:57:05;;;;;;;4.9;2.5;;;;;;;;;;;;;
2020/07/04 03:59:31;;;;;;;6.5;2.6;;;;;;;;;;;;;
2020/07/04 04:02:30;;;;;;;9.2;3.9;;;;;;;13.54;85.10059;942.579;;;;
2020/07/04 04:04:55;;;;;;;6.3;3.5;;;;;;;13.63;84.95508;942.5189;;;;
2020/07/04 04:07:22;;;;;;;4.3;3;;;;;;;13.68;84.87598;942.5895;;;;
2020/07/04 04:09:47;;;;;;;4.4;2.9;;;;;;;13.73;84.4707;942.5513;;;;
2020/07/04 04:12:13;;;;;;;6.5;2.8;;;;;;;13.79;84.17188;942.6277;;;;
2020/07/04 04:14:38;;;;;;;5.3;2.6;;;;;;;13.83;83.97168;942.6305;;;;
2020/07/04 04:17:06;;;;;;;5.2;2.5;;;;;;;13.77;83.73145;942.6267;;;;
2020/07/04 04:19:32;;;;;;;3;2;;;;;;;13.63;83.9209;942.6357;;;;
2020/07/04 04:21:57;;;;;;;3.7;2.3;;;;;;;13.4;84.62402;942.6451;;;;
2020/07/04 04:24:23;;;;;;;4.9;2.5;;;;;;;13.27;85.97852;942.6492;;;;
2020/07/04 04:26:49;;;;;;;4.5;2.2;;;;;;;13.36;85.38672;942.6273;;;;
2020/07/04 04:29:16;;;;;;;5.3;2.6;;;;;;;13.16;86.06055;942.6175;;;;
2020/07/04 04:31:41;;;;;;;4.3;2.3;;;;;;;12.83;87.50879;942.6844;;;;
2020/07/04 04:34:19;;;;;;;6.2;2.8;;;;;;;12.79;88.21582;942.695;;;;
2020/07/04 04:36:46;;;;;;;6.8;2.9;;;;;;;12.75;88.55078;942.7075;;;;
2020/07/04 04:39:11;;;;;;;10.5;2.6;;;;;;;12.85;87.92773;942.7173;;;;
2020/07/04 04:41:37;;;;;;;4.5;2.2;;;;;;;13.09;87.51563;942.817;;;;
2020/07/04 04:44:02;;;;;;;4.4;2.5;;;;;;;13.15;86.62109;942.8054;;;;
2020/07/04 04:46:30;;;;;;;4.7;2.5;;;;;;;13.33;86.1748;942.7751;;;;
2020/07/04 04:48:55;;;;;;;5.8;2.2;;;;;;;13.61;85.82715;942.8122;;;;
2020/07/04 04:51:20;;;;;;;5.5;2.6;;;;;;;13.93;85.50781;942.7941;;;;
2020/07/04 04:53:46;;;;;;;7.2;2.1;;;;;;;14.21;83.80371;942.8699;;;;
2020/07/04 04:56:11;;;;;;;7.9;2.7;;;;;;;14.46;84.05762;942.8602;;;;
2020/07/04 04:58:38;;;;;;;4.7;2.1;;;;;;;14.76;82.3877;942.7509;;;;
2020/07/04 05:01:04;;;;;;;6;2.3;;;;;;;15;81.25684;942.801;;;;
2020/07/04 05:03:29;;;;;;;3.5;2.2;;;;;;;15.22;80.99707;942.7966;;;;
2020/07/04 05:05:54;;;;;;;4.6;1.9;;;;;;;15.32;79.91895;942.7972;;;;
2020/07/04 05:08:19;;;;;;;3;2;;;;;;;15.53;80.10645;942.8276;;;;
2020/07/04 05:10:45;;;;;;;5.8;2.3;;;;;;;15.9;79.37891;942.7615;;;;
2020/07/04 05:13:10;;;;;;;6.7;2.2;;;;;;;16.29;76.21973;942.8295;;;;
2020/07/04 05:15:39;;;;;;;4.6;1.9;;;;;;;16.53;74.99805;942.83;;;;
2020/07/04 05:18:04;;;;;;;6.8;1.8;;;;;;;16.57;75.0293;942.8675;;;;
2020/07/04 05:20:30;;;;;;;4.2;1.8;;;;;;;16.72;75.18262;942.8656;;;;
2020/07/04 05:22:55;;;;;;;6.1;2.1;;;;;;;16.65;75.43652;942.8215;;;;
2020/07/04 05:25:21;;;;;;;9.3;2.4;;;;;;;16.66;75.27637;942.7813;;;;
2020/07/04 05:27:46;;;;;;;7;2.3;;;;;;;16.65;74.23242;942.8489;;;;
2020/07/04 05:30:15;;;;;;;4.6;2.3;;;;;;;16.7;75.20313;942.8488;;;;
2020/07/04 05:32:40;;;;;;;5.7;2.8;;;;;;;16.62;75.1084;942.8242;;;;
2020/07/04 05:35:08;;;;;;;5.1;2;;;;;;;16.63;74.69238;942.8289;;;;
2020/07/04 05:37:33;;;;;;;6.4;1.8;;;;;;;16.59;74.5127;942.8409;;;;
2020/07/04 05:39:58;;;;;;;5.9;1.7;;;;;;;16.47;74.2373;942.7999;;;;
2020/07/04 05:42:23;;;;;;;4.9;1.8;;;;;;;16.7;73.95215;942.7724;;;;
2020/07/04 05:44:49;;;;;;;5.2;1.6;;;;;;;16.85;73.0166;942.8198;;;;
2020/07/04 05:47:14;;;;;;;2.7;1.4;;;;;;;17.47;71.58887;942.7527;;;;
2020/07/04 05:49:41;;;;;;;5.1;2;;;;;;;17.86;72.69727;942.7502;;;;
2020/07/04 05:52:06;;;;;;;3.2;1.5;;;;;;;18.45;66.95801;942.7147;;;;
2020/07/04 05:54:33;;;;;;;5.7;2.2;;;;;;;18.77;67.66895;942.6905;;;;
2020/07/04 05:56:58;;;;;;;5.1;1.7;;;;;;;18.76;65.23633;942.7302;;;;
2020/07/04 05:59:24;;;;;;;3;1.7;;;;;;;17.97;67.79102;942.7239;;;;
2020/07/04 06:01:49;;;;;;;2.1;1.4;;;;;;;17.88;67.42871;942.8095;;;;
2020/07/04 06:04:14;;;;;;;3;1.5;;;;;;;17.75;68.02441;942.805;;;;
2020/07/04 06:06:40;;;;;;;5.5;1.6;;;;;;;17.97;68.39453;942.7908;;;;
2020/07/04 06:09:05;;;;;;;4.6;1.5;;;;;;;18.38;68.72559;942.738;;;;
2020/07/04 06:11:32;;;;;;;6.1;1.7;;;;;;;18.73;66.52344;942.8225;;;;
2020/07/04 06:13:57;;;;;;;3.4;1.5;;;;;;;18.72;66.05566;942.7438;;;;
2020/07/04 06:16:26;;;;;;;6.3;1.8;;;;;;;19;65.31738;942.755;;;;
2020/07/04 06:18:51;;;;;;;6.1;1.5;;;;;;;19.09;64.94824;942.7514;;;;
2020/07/04 06:21:17;;;;;;;9.9;1.9;;;;;;;19.1;64.77441;942.7296;;;;
2020/07/04 06:23:42;;;;;;;4.3;1.4;;;;;;;19.34;63.56348;942.7096;;;;
2020/07/04 06:26:09;;;;;;;5.6;1.5;;;;;;;19.86;63.32324;942.6625;;;;
2020/07/04 06:28:34;;;;;;;2.7;1.3;;;;;;;20.8;59.36621;942.717;;;;
2020/07/04 06:30:59;;;;;;;3.4;1.3;;;;;;;20.3;59.71875;942.6689;;;;
2020/07/04 06:33:26;;;;;;;3.2;1.2;;;;;;;20.22;59.26563;942.647;;;;
2020/07/04 06:35:51;;;;;;;3;1;;;;;;;20.23;60.11914;942.663;;;;
2020/07/04 06:38:17;;;;;;;4.2;1.6;;;;;;;20.73;58.44531;942.6928;;;;
2020/07/04 06:40:42;;;;;;;2.1;1.1;;;;;;;20.77;57.67871;942.6053;;;;
2020/07/04 06:43:08;;;;;;;5.7;1.2;;;;;;;21.63;56.24414;942.5956;;;;
2020/07/04 06:45:34;;;;;;;8.1;1.5;;;;;;;22.55;54.73145;942.528;;;;
2020/07/04 06:48:02;;;;;;;4.6;1.2;;;;;;;22.28;52.30469;942.5513;;;;
2020/07/04 06:50:27;;;;;;;2.3;1;;;;;;;22.44;52.38184;942.5209;;;;
2020/07/04 06:52:52;;;;;;;6.8;1.4;;;;;;;22.98;50.13281;942.4856;;;;
2020/07/04 06:55:17;;;;;;;2.1;1;;;;;;;24.2;47.49121;942.5055;;;;
2020/07/04 06:57:43;;;;;;;2;1;;;;;;;24.58;47.57813;942.5181;;;;
2020/07/04 07:00:08;;;;;;;4.8;1.1;;;;;;;24.43;48.76367;942.4905;;;;
2020/07/04 07:02:33;;;;;;;5.3;1.3;;;;;;;25.87;47.47852;942.4947;;;;
2020/07/04 07:04:59;;;;;;;3.4;0.9;;;;;;;25.98;42.32324;942.3641;;;;
2020/07/04 07:07:24;;;;;;;2.7;1;;;;;;;26.28;41.9834;942.3295;;;;
2020/07/04 07:09:50;;;;;;;2.1;1;;;;;;;26.24;41.70898;942.3206;;;;
2020/07/04 07:12:14;;;;;;;2.2;1;;;;;;;27.4;42.08887;942.2827;;;;
2020/07/04 07:14:40;;;;;;;4.8;1.1;;;;;;;29.01;39.41797;942.2388;;;;
2020/07/04 07:17:05;;;;;;;3.1;1;;;;;;;30.86;36.36426;942.1322;;;;
2020/07/04 07:19:31;;;;;;;2.9;1;;;;;;;31.55;30.84082;942.1124;;;;
2020/07/04 07:21:56;;;;;;;6.2;1.1;;;;;;;28.5;35.65234;942.0764;;;;
2020/07/04 07:24:24;;;;;;;3.3;0.9;;;;;;;28.99;35.64258;942.0562;;;;
2020/07/04 07:26:49;;;;;;;1.8;0.8;;;;;;;29.7;38.54883;942.0107;;;;
2020/07/04 07:29:15;;;;;;;3.8;1;;;;;;;30.99;32.9668;941.9852;;;;
2020/07/04 07:31:41;;;;;;;3.4;1;;;;;;;32.46;32.30566;941.9537;;;;
2020/07/04 07:34:07;;;;;;;1.2;0.8;;;;;;;33.17;34.47168;941.9637;;;;
2020/07/04 07:36:32;;;;;;;2.5;1;;;;;;;33.71;29.43652;941.8879;;;;
2020/07/04 07:38:57;;;;;;;2.1;0.8;;;;;;;33.15;31.23828;941.8448;;;;
2020/07/04 07:41:23;;;;;;;4;0.8;;;;;;;33.76;29.55957;941.8339;;;;
2020/07/04 07:43:47;;;;;;;1.5;0.8;;;;;;;32.85;28.51563;941.8119;;;;
2020/07/04 07:46:13;;;;;;;4.5;0.9;;;;;;;32.88;31.03906;941.8209;;;;
2020/07/04 07:48:38;;;;;;;3;1;;;;;;;33.61;27.7334;941.7941;;;;
2020/07/04 07:51:04;;;;;;;2.4;0.8;;;;;;;34.09;31.3623;941.7841;;;;
2020/07/04 07:53:29;;;;;;;2.2;0.9;;;;;;;33.55;29.36621;941.7431;;;;
2020/07/04 07:55:55;;;;;;;1.5;0.9;;;;;;;33.32;28.70215;941.7224;;;;
2020/07/04 07:58:20;;;;;;;3.5;1.1;;;;;;;32.76;27.73047;941.6964;;;;
2020/07/04 08:00:48;;;;;;;2;0.8;;;;;;;31.55;31.66699;941.7017;;;;
2020/07/04 08:03:14;;;;;;;1.6;0.8;;;;;;;31.81;33.03809;941.6815;;;;
2020/07/04 08:05:39;;;;;;;6.2;1.1;;;;;;;33.1;31.54688;941.6989;;;;
2020/07/04 08:08:04;;;;;;;13.3;2.1;;;;;;;34.03;27.5791;941.6845;;;;
2020/07/04 08:10:30;;;;;;;3.1;0.7;;;;;;;33.62;28.8291;941.6837;;;;
2020/07/04 08:12:55;;;;;;;2.2;0.7;;;;;;;34.78;25.97168;941.6487;;;;
2020/07/04 08:15:27;;;;;;;1.4;0.8;;;;;;;35.93;27.75391;941.6038;;;;
2020/07/04 08:17:52;;;;;;;2.1;0.9;;;;;;;35.45;28.47363;941.588;;;;
2020/07/04 08:20:17;;;;;;;5.5;1.2;;;;;;;35.21;30.3291;941.5737;;;;
2020/07/04 08:22:42;;;;;;;3.1;0.9;;;;;;;35.68;28.7168;941.611;;;;
2020/07/04 08:25:07;;;;;;;2.3;0.8;;;;;;;34.87;28.85938;941.6225;;;;
2020/07/04 08:27:32;;;;;;;1.9;0.9;;;;;;;34.53;29.05469;941.6537;;;;
2020/07/04 08:29:58;;;;;;;6.2;0.9;;;;;;;36.47;28.8877;941.6189;;;;
2020/07/04 08:32:23;;;;;;;2.2;0.8;;;;;;;36.97;28.08398;941.6606;;;;
2020/07/04 08:34:50;;;;;;;4.6;1;;;;;;;36.76;27.4043;941.6412;;;;
2020/07/04 08:37:15;;;;;;;1.5;0.7;;;;;;;35.92;25.10547;941.5284;;;;
2020/07/04 08:39:40;;;;;;;1.7;0.7;;;;;;;36.24;26.05469;941.5747;;;;
2020/07/04 08:42:06;;;;;;;2.4;0.7;;;;;;;35.18;25.99512;941.5325;;;;
2020/07/04 08:44:33;;;;;;;1.9;0.9;;;;;;;36.04;27.22852;941.6025;;;;
2020/07/04 08:46:57;;;;;;;2.5;0.9;;;;;;;36.05;25.93555;941.6181;;;;
2020/07/04 08:49:24;;;;;;;2.9;0.8;;;;;;;35.31;26.59375;941.5963;;;;
2020/07/04 08:51:49;;;;;;;1.7;0.8;;;;;;;35.54;28.37109;941.6245;;;;
2020/07/04 08:54:15;;;;;;;2.5;0.7;;;;;;;35.16;31.30371;941.6275;;;;
2020/07/04 08:56:40;;;;;;;1.7;0.7;;;;;;;36.01;28.53223;941.6174;;;;
2020/07/04 08:59:08;;;;;;;2.3;0.8;;;;;;;35.81;28.59277;941.6359;;;;
2020/07/04 09:01:33;;;;;;;1.9;0.7;;;;;;;36.17;27.27246;941.5981;;;;
2020/07/04 09:04:01;;;;;;;1.8;0.9;;;;;;;35.25;28.72559;941.6228;;;;
2020/07/04 09:06:26;;;;;;;1.7;0.8;;;;;;;34.82;28.95313;941.6769;;;;
2020/07/04 09:08:52;;;;;;;1.9;0.9;;;;;;;33.62;31.26953;941.7145;;;;
2020/07/04 09:11:18;;;;;;;3;0.9;;;;;;;32.88;32.60059;941.7238;;;;
2020/07/04 09:13:43;;;;;;;4;1;;;;;;;32.59;34.13867;941.7385;;;;
2020/07/04 09:16:09;;;;;;;1.9;0.8;;;;;;;31.79;32.37793;941.7065;;;;
2020/07/04 09:18:34;;;;;;;3.3;1.2;;;;;;;31.24;36.16797;941.7734;;;;
2020/07/04 09:21:01;;;;;;;2.3;1.1;;;;;;;30.4;38.19043;941.7261;;;;
2020/07/04 09:23:26;;;;;;;2.8;0.9;;;;;;;30.07;38.3291;941.7481;;;;
2020/07/04 09:25:52;;;;;;;3.5;1.5;;;;;;;29.72;37.96582;941.7872;;;;
2020/07/04 09:28:21;;;;;;;4.1;1;;;;;;;28.92;40.00684;941.7228;;;;
2020/07/04 09:30:47;;;;;;;3.6;1;;;;;;;27.99;43.15527;941.6838;;;;
2020/07/04 09:33:10;;;;;;;3.2;1.1;;;;;;;27.65;42.75391;941.6908;;;;
2020/07/04 09:35:35;;;;;;;1.9;1.1;;;;;;;27.55;42.35254;941.7042;;;;
2020/07/04 09:38:01;;;;;;;2;0.9;;;;;;;27.82;42.25977;941.6867;;;;
2020/07/04 09:40:26;;;;;;;3.3;1.2;;;;;;;28.1;42.41699;941.6472;;;;
2020/07/04 09:42:55;;;;;;;6.3;1.2;;;;;;;28.57;43.06641;941.6956;;;;
2020/07/04 09:45:20;;;;;;;2.2;1;;;;;;;28.57;42.81738;941.653;;;;
2020/07/04 09:47:47;;;;;;;3.3;1.4;;;;;;;28.8;44.20801;941.6247;;;;
2020/07/04 09:50:11;;;;;;;2.4;1.1;;;;;;;29.29;40.59961;941.6561;;;;
2020/07/04 09:52:37;;;;;;;2.7;1.1;;;;;;;29.68;40.70605;941.6487;;;;
2020/07/04 09:55:02;;;;;;;1.5;0.9;;;;;;;30.22;39.70313;941.6747;;;;
2020/07/04 09:57:27;;;;;;;2.2;1.1;;;;;;;29.73;38.93262;941.6453;;;;
2020/07/04 09:59:52;;;;;;;1.9;1.1;;;;;;;29.06;39.62598;941.5912;;;;
2020/07/04 10:02:18;;;;;;;2.4;1.1;;;;;;;27.73;42.54688;941.5892;;;;
2020/07/04 10:04:43;;;;;;;2.1;1.3;;;;;;;26.81;45.94434;941.6248;;;;
2020/07/04 10:07:08;;;;;;;3.4;1.3;;;;;;;26.75;47.48926;941.5847;;;;
2020/07/04 10:09:33;;;;;;;1.9;1.1;;;;;;;26.88;47.23145;941.5975;;;;
2020/07/04 10:11:58;;;;;;;2.3;1.2;;;;;;;27.15;46.85449;941.6325;;;;
2020/07/04 10:14:23;;;;;;;25.5;11.8;;;;;;;27.36;45.45508;941.559;;;;
2020/07/04 10:16:50;;;;;;;67.4;31.1;;;;;;;27.51;45.68262;941.5688;;;;
2020/07/04 10:19:15;;;;;;;40.3;19.7;;;;;;;27.4;46.00293;941.6364;;;;
2020/07/04 10:21:41;;;;;;;18.6;8.7;;;;;;;27.1;43.94531;941.553;;;;
2020/07/04 10:24:07;;;;;;;11.6;5.3;;;;;;;26.74;45.71191;941.5672;;;;
2020/07/04 10:26:33;;;;;;;3.4;1.8;;;;;;;26.53;46.00879;941.5539;;;;
2020/07/04 10:28:59;;;;;;;4;2.3;;;;;;;26.52;45.04883;941.5302;;;;
2020/07/04 10:31:26;;;;;;;2.9;1.2;;;;;;;26.63;45.46387;941.4899;;;;
2020/07/04 10:33:51;;;;;;;5;2.3;;;;;;;26.42;45.22852;941.5647;;;;
2020/07/04 10:36:17;;;;;;;4.2;2.3;;;;;;;26.37;47.28418;941.5561;;;;
2020/07/04 10:38:42;;;;;;;3;1.5;;;;;;;26.7;45.71973;941.4897;;;;
2020/07/04 10:41:10;;;;;;;3.3;1.7;;;;;;;26.81;47.03418;941.5366;;;;
2020/07/04 10:43:35;;;;;;;2.3;1.2;;;;;;;27.25;46.20215;941.4805;;;;
2020/07/04 10:46:03;;;;;;;3.5;1.1;;;;;;;27.27;46.10938;941.4825;;;;
2020/07/04 10:48:28;;;;;;;1.3;0.9;;;;;;;27.48;42.27539;941.4533;;;;
2020/07/04 10:50:54;;;;;;;1.6;1;;;;;;;27.59;42.72461;941.3522;;;;
2020/07/04 10:53:19;;;;;;;2.5;1.1;;;;;;;27.56;44.2041;941.3947;;;;
2020/07/04 10:55:45;;;;;;;1.8;1;;;;;;;27.3;45.3291;941.348;;;;
2020/07/04 10:58:10;;;;;;;2.6;1.1;;;;;;;27.32;46.39941;941.3314;;;;
2020/07/04 11:00:35;;;;;;;2.1;1;;;;;;;27.55;44.01367;941.2985;;;;
2020/07/04 11:03:00;;;;;;;1.1;0.9;;;;;;;27.67;44.88086;941.3175;;;;
2020/07/04 11:05:26;;;;;;;3.3;1;;;;;;;27.61;43.30762;941.3004;;;;
2020/07/04 11:07:51;;;;;;;3.7;1.4;;;;;;;27.31;44.02637;941.2819;;;;
2020/07/04 11:10:16;;;;;;;3.9;1.3;;;;;;;27.06;45.74414;941.2542;;;;
2020/07/04 11:12:42;;;;;;;1.5;1;;;;;;;26.92;44.94824;941.2626;;;;
2020/07/04 11:15:08;;;;;;;1.3;1.1;;;;;;;26.42;45.05078;941.2478;;;;
2020/07/04 11:17:36;;;;;;;2.6;1;;;;;;;26.31;45.69141;941.2028;;;;
2020/07/04 11:20:01;;;;;;;1.8;1.1;;;;;;;26.45;46.79492;941.1666;;;;
2020/07/04 11:22:26;;;;;;;2.4;1;;;;;;;26.45;46.83008;941.147;;;;
2020/07/04 11:24:52;;;;;;;3.1;1.2;;;;;;;26.52;45.17969;941.1191;;;;
2020/07/04 11:27:18;;;;;;;2;1;;;;;;;26.47;46.76172;941.1232;;;;
2020/07/04 11:29:43;;;;;;;2.5;1.2;;;;;;;26.47;47.82715;941.1411;;;;
2020/07/04 11:32:08;;;;;;;2.3;1.1;;;;;;;26.82;46.27539;941.0165;;;;
2020/07/04 11:34:35;;;;;;;1.9;0.8;;;;;;;26.93;45.3877;940.9829;;;;
2020/07/04 11:37:00;;;;;;;2.2;1.2;;;;;;;27.21;45.27246;940.9606;;;;
2020/07/04 11:39:27;;;;;;;3.4;1.1;;;;;;;27.11;44.78906;940.9177;;;;
2020/07/04 11:41:52;;;;;;;1.4;1;;;;;;;27.24;46.01172;940.959;;;;
2020/07/04 11:44:21;;;;;;;1.8;1;;;;;;;27.35;46.61523;940.8825;;;;
2020/07/04 11:46:44;;;;;;;6.9;3.8;;;;;;;27.06;45.69727;940.923;;;;
2020/07/04 11:49:12;;;;;;;2.1;1.4;;;;;;;27.19;45.92285;940.8912;;;;
2020/07/04 11:51:37;;;;;;;4;1.6;;;;;;;27.31;45.79297;940.8164;;;;
2020/07/04 11:54:03;;;;;;;3.8;1.7;;;;;;;27.32;45.34375;940.7802;;;;
2020/07/04 11:56:28;;;;;;;4.1;1.5;;;;;;;27.2;45.09473;940.7947;;;;
2020/07/04 11:59:13;;;;;;;4.3;1.7;;;;;;;27.21;45.30859;940.7683;;;;
2020/07/04 12:01:24;;;;;;;1.5;1;;;;;;;27.45;44.47852;940.7483;;;;
2020/07/04 12:03:49;;;;;;;2.5;1.3;;;;;;;27.49;44.20996;940.7517;;;;
2020/07/04 12:06:17;;;;;;;2.3;1;;;;;;;26.98;47.39551;940.7734;;;;
2020/07/04 12:08:42;;;;;;;2.8;1.1;;;;;;;27.01;46.83008;940.765;;;;
2020/07/04 12:11:09;;;;;;;2.2;1.1;;;;;;;27.3;45.54199;940.7232;;;;
2020/07/04 12:13:34;;;;;;;2.8;1.3;;;;;;;27.23;43.3418;940.7541;;;;
2020/07/04 12:16:00;;;;;;;3.2;1.1;;;;;;;27.39;43.59473;940.7303;;;;
2020/07/04 12:18:25;;;;;;;1.6;1.1;;;;;;;27.34;43.70801;940.7234;;;;
2020/07/04 12:20:50;;;;;;;2.2;1.2;;;;;;;27.39;46.31055;940.6514;;;;
2020/07/04 12:23:17;;;;;;;4.4;1.8;;;;;;;27.45;44.77539;940.6188;;;;
2020/07/04 12:25:42;;;;;;;1.7;1.1;;;;;;;27.43;44.12109;940.5953;;;;
2020/07/04 12:28:07;;;;;;;3.6;1.1;;;;;;;27.53;44.09473;940.5762;;;;
2020/07/04 12:30:40;;;;;;;2.2;1;;;;;;;27.76;45.39941;940.5861;;;;
2020/07/04 12:33:10;;;;;;;3.2;1.2;;;;;;;27.66;44.19141;940.5806;;;;
2020/07/04 12:35:39;;;;;;;2.5;0.9;;;;;;;27.71;44.38672;940.5359;;;;
2020/07/04 12:38:05;;;;;;;1.9;1;;;;;;;27.7;43.61328;940.5636;;;;
2020/07/04 12:40:31;;;;;;;2;0.9;;;;;;;27.78;42.9209;940.5383;;;;
2020/07/04 12:42:57;;;;;;;1.8;0.9;;;;;;;27.41;43.01563;940.4995;;;;
2020/07/04 12:45:30;;;;;;;1.7;1;;;;;;;27.43;44.39355;940.3981;;;;
2020/07/04 12:47:59;;;;;;;1.3;1;;;;;;;27.42;42.71973;940.4771;;;;
2020/07/04 12:50:25;;;;;;;2;1.1;;;;;;;27.62;45.04102;940.4194;;;;
2020/07/04 12:52:50;;;;;;;1.4;0.9;;;;;;;27.81;43.41016;940.405;;;;
2020/07/04 12:55:15;;;;;;;2.2;0.9;;;;;;;27.96;42.96094;940.3967;;;;
2020/07/04 12:57:40;;;;;;;1.8;1.1;;;;;;;27.78;45.34277;940.3664;;;;
2020/07/04 13:00:05;;;;;;;1.8;1;;;;;;;27.71;45.40625;940.3915;;;;
2020/07/04 13:02:32;;;;;;;2.4;1.1;;;;;;;27.84;44.9082;940.2798;;;;
2020/07/04 13:04:58;;;;;;;1.9;1;;;;;;;27.68;43.16016;940.2725;;;;
2020/07/04 13:07:24;;;;;;;2.4;1.1;;;;;;;27.67;44.85645;940.1997;;;;
2020/07/04 13:09:50;;;;;;;2.1;1.1;;;;;;;27.31;43.74121;940.1254;;;;
2020/07/04 13:12:16;;;;;;;3.7;0.9;;;;;;;27.11;45.84375;940.1027;;;;
2020/07/04 13:14:41;;;;;;;2.3;1;;;;;;;27.18;46.38379;940.1085;;;;
2020/07/04 13:17:10;;;;;;;2.5;1;;;;;;;26.55;47.36133;940.1033;;;;
2020/07/04 13:19:35;;;;;;;4.5;1.5;;;;;;;26.7;47.21191;940.1555;;;;
2020/07/04 13:22:00;;;;;;;3.5;1;;;;;;;26.76;46.43652;940.1691;;;;
2020/07/04 13:24:25;;;;;;;1.3;0.9;;;;;;;26.6;46.74023;940.1437;;;;
2020/07/04 13:26:51;;;;;;;3.2;1.1;;;;;;;26.76;46.3291;940.1168;;;;
2020/07/04 13:29:17;;;;;;;1.5;1;;;;;;;26.71;47.62695;940.1247;;;;
2020/07/04 13:31:44;;;;;;;1.6;1;;;;;;;26.85;45.34375;940.0828;;;;
2020/07/04 13:34:09;;;;;;;3;1.1;;;;;;;26.85;45.63965;940.0553;;;;
2020/07/04 13:36:38;;;;;;;2.7;1.1;;;;;;;26.93;48.10156;940.1345;;;;
2020/07/04 13:39:06;;;;;;;1.6;0.9;;;;;;;26.9;45.26563;940.005;;;;
2020/07/04 13:41:30;;;;;;;2.4;1;;;;;;;26.79;46.48633;940.0391;;;;
2020/07/04 13:44:05;;;;;;;2.5;1.2;;;;;;;26.94;46.30078;939.9604;;;;
2020/07/04 13:46:30;;;;;;;2.6;1.1;;;;;;;26.9;46.56934;940.0214;;;;
2020/07/04 13:48:55;;;;;;;1.6;1.1;;;;;;;26.95;46.10059;939.9536;;;;
2020/07/04 13:51:20;;;;;;;2.5;1.1;;;;;;;26.84;46.91797;939.9479;;;;
2020/07/04 13:53:45;;;;;;;2.7;1.1;;;;;;;27.07;47.00098;939.9897;;;;
2020/07/04 13:56:10;;;;;;;3.6;1;;;;;;;27.04;46.47656;940.0142;;;;
2020/07/04 13:58:37;;;;;;;2.6;1;;;;;;;27.07;45.11621;940.0852;;;;
2020/07/04 14:01:02;;;;;;;2.8;1;;;;;;;27.05;44.9248;940.0159;;;;
2020/07/04 14:03:29;;;;;;;1.9;1.1;;;;;;;27.08;46.68262;940.0768;;;;
2020/07/04 14:05:53;;;;;;;3;1.3;;;;;;;27.07;46.27832;940.0862;;;;
2020/07/04 14:08:19;;;;;;;3.4;1.1;;;;;;;27.13;45.47852;940.0455;;;;
2020/07/04 14:10:44;;;;;;;2.1;1.1;;;;;;;26.84;46.6582;939.9567;;;;
2020/07/04 14:13:10;;;;;;;2.1;1;;;;;;;26.75;46.13867;939.9258;;;;
2020/07/04 14:15:35;;;;;;;1.5;1.1;;;;;;;26.55;49.31543;939.9741;;;;
2020/07/04 14:18:02;;;;;;;2.8;1.1;;;;;;;26.48;47.79199;939.8969;;;;
2020/07/04 14:20:27;;;;;;;1.4;1;;;;;;;26.38;47.20215;939.9233;;;;
2020/07/04 14:22:55;;;;;;;2.3;1.1;;;;;;;26.41;46.53027;939.9105;;;;
2020/07/04 14:25:20;;;;;;;2.4;1.2;;;;;;;26.37;47.54492;939.8853;;;;
2020/07/04 14:27:45;;;;;;;1.6;1.1;;;;;;;26.3;47.6543;939.9141;;;;
2020/07/04 14:30:14;;;;;;;1.7;1;;;;;;;26.23;48.2627;939.9033;;;;
2020/07/04 14:32:38;;;;;;;3.5;1.3;;;;;;;26.1;49.59668;939.9016;;;;
2020/07/04 14:35:03;;;;;;;1.7;1.1;;;;;;;25.9;48.12012;939.8666;;;;
2020/07/04 14:37:28;;;;;;;3.1;1.5;;;;;;;26.09;47.72754;939.9083;;;;
2020/07/04 14:39:54;;;;;;;3.5;1.3;;;;;;;26.12;47.90723;939.8301;;;;
2020/07/04 14:42:19;;;;;;;3.4;1.3;;;;;;;26.25;48.99805;939.8112;;;;
2020/07/04 14:44:43;;;;;;;2.9;1.1;;;;;;;26.35;47.90918;939.8391;;;;
2020/07/04 14:47:09;;;;;;;2.5;1.2;;;;;;;26.36;46.34668;939.8795;;;;
2020/07/04 14:49:35;;;;;;;1.8;1;;;;;;;26.26;44.71582;939.8574;;;;
2020/07/04 14:52:02;;;;;;;4.1;1.2;;;;;;;26.3;47.41797;939.8538;;;;
2020/07/04 14:54:27;;;;;;;2.1;0.9;;;;;;;26.33;45.32617;939.829;;;;
2020/07/04 14:56:56;;;;;;;3.7;1.1;;;;;;;26.38;45.95898;939.8899;;;;
2020/07/04 14:59:21;;;;;;;2.2;1.1;;;;;;;26.27;47.54492;939.918;;;;
2020/07/04 15:01:46;;;;;;;2.5;1;;;;;;;26.3;46.43555;939.954;;;;
2020/07/04 15:04:12;;;;;;;1.6;1;;;;;;;26.3;46.23438;940.0945;;;;
2020/07/04 15:06:38;;;;;;;1.5;1;;;;;;;26.2;47.39551;940.0499;;;;
2020/07/04 15:09:05;;;;;;;2;1;;;;;;;26.06;46.375;940.1147;;;;
2020/07/04 15:11:30;;;;;;;8.8;1.3;;;;;;;25.97;46.95703;940.0683;;;;
2020/07/04 15:13:57;;;;;;;3.4;1.3;;;;;;;25.82;48.47852;940.0795;;;;
2020/07/04 15:16:21;;;;;;;2.6;1.3;;;;;;;25.76;47.99902;940.0588;;;;
2020/07/04 15:18:47;;;;;;;2.3;1.3;;;;;;;25.6;47.50879;940.0078;;;;
2020/07/04 15:21:13;;;;;;;2.9;1.3;;;;;;;25.51;49.47266;939.9719;;;;
2020/07/04 15:23:38;;;;;;;2.3;1.3;;;;;;;25.18;49.89648;939.9698;;;;
2020/07/04 15:26:02;;;;;;;3.1;1.4;;;;;;;25.21;49.89941;939.9594;;;;
2020/07/04 15:28:27;;;;;;;2.2;1.3;;;;;;;25.07;50.99414;939.943;;;;
2020/07/04 15:30:52;;;;;;;3.6;1.3;;;;;;;25;51.98828;940.0086;;;;
2020/07/04 15:33:21;;;;;;;1.7;1.2;;;;;;;24.98;51.85645;940.0488;;;;